createdAt,value
2023-01-29T00:01:31.392Z,3.17
2023-01-29T00:04:14.314Z,2.40
2023-01-29T00:06:57.104Z,3.00
2023-01-29T00:09:41.336Z,3.00
2023-01-29T00:12:24.423Z,2.10
2023-01-29T00:15:08.329Z,2.47
2023-01-29T00:17:51.163Z,2.30
2023-01-29T00:20:34.046Z,1.77
2023-01-29T00:23:16.967Z,2.45
2023-01-29T00:26:01.996Z,2.45
2023-01-29T00:28:44.859Z,3.00
2023-01-29T00:31:28.121Z,2.30
2023-01-29T00:34:11.033Z,3.20
2023-01-29T00:37:04.276Z,2.72
2023-01-29T00:39:48.341Z,2.30
2023-01-29T00:42:49.563Z,1.70
2023-01-29T00:45:32.948Z,1.55
2023-01-29T00:48:15.739Z,1.50
2023-01-29T00:50:58.556Z,1.50
2023-01-29T00:53:41.360Z,1.60
2023-01-29T00:56:24.127Z,1.85
2023-01-29T00:59:08.277Z,2.00
2023-01-29T01:02:08.499Z,1.40
2023-01-29T01:04:51.554Z,1.48
2023-01-29T01:07:34.858Z,1.50
2023-01-29T01:10:21.939Z,1.90
2023-01-29T01:13:07.609Z,2.58
2023-01-29T01:15:51.934Z,2.22
2023-01-29T01:18:34.748Z,2.45
2023-01-29T01:21:17.622Z,1.50
2023-01-29T01:24:00.414Z,1.50
2023-01-29T01:26:43.943Z,1.60
2023-01-29T01:29:26.711Z,1.52
2023-01-29T01:32:10.872Z,1.73
2023-01-29T01:34:54.098Z,1.67
2023-01-29T01:37:38.715Z,1.63
2023-01-29T01:40:22.294Z,1.50
2023-01-29T01:43:07.455Z,1.80
2023-01-29T01:45:50.300Z,1.58
2023-01-29T01:48:34.835Z,1.80
2023-01-29T01:51:17.979Z,2.60
2023-01-29T01:54:07.009Z,2.65
2023-01-29T01:56:55.518Z,2.83
2023-01-29T01:59:41.035Z,2.70
2023-01-29T02:02:43.348Z,3.25
2023-01-29T02:05:46.037Z,3.35
2023-01-29T02:08:54.348Z,2.50
2023-01-29T02:11:37.838Z,3.72
2023-01-29T02:14:21.259Z,2.70
2023-01-29T02:17:04.288Z,2.67
2023-01-29T02:19:54.089Z,3.80
2023-01-29T02:23:16.520Z,3.60
2023-01-29T02:26:14.570Z,2.97
2023-01-29T02:29:22.357Z,2.20
2023-01-29T02:32:17.256Z,1.63
2023-01-29T02:35:29.735Z,2.00
2023-01-29T02:38:18.919Z,1.45
2023-01-29T02:41:12.730Z,1.70
2023-01-29T02:44:05.954Z,1.88
2023-01-29T02:46:57.140Z,1.80
2023-01-29T02:49:49.283Z,3.20
2023-01-29T02:52:37.557Z,2.47
2023-01-29T02:55:25.917Z,2.70
2023-01-29T02:58:14.560Z,2.22
2023-01-29T03:01:03.014Z,2.50
2023-01-29T03:03:53.678Z,2.38
2023-01-29T03:06:40.164Z,2.90
2023-01-29T03:09:28.822Z,2.85
2023-01-29T03:12:28.517Z,4.70
2023-01-29T03:15:17.675Z,3.67
2023-01-29T03:18:18.639Z,2.90
2023-01-29T03:21:26.493Z,2.88
2023-01-29T03:24:31.585Z,3.25
2023-01-29T03:27:35.576Z,3.50
2023-01-29T03:30:38.506Z,3.08
2023-01-29T03:33:50.803Z,3.17
2023-01-29T03:36:39.875Z,3.97
2023-01-29T03:39:25.173Z,4.00
2023-01-29T03:42:18.164Z,3.90
2023-01-29T03:45:09.841Z,4.18
2023-01-29T03:48:05.896Z,4.03
2023-01-29T03:50:58.992Z,4.60
2023-01-29T03:53:45.470Z,4.72
2023-01-29T03:56:40.149Z,7.15
2023-01-29T04:02:31.194Z,5.03
2023-01-29T04:05:21.201Z,4.10
2023-01-29T04:08:29.938Z,4.20
2023-01-29T04:11:19.654Z,4.18
2023-01-29T04:14:03.751Z,4.60
2023-01-29T04:16:51.928Z,9.30
2023-01-29T04:22:36.893Z,5.30
2023-01-29T04:25:26.715Z,6.93
2023-01-29T04:28:20.320Z,5.45
2023-01-29T04:31:10.066Z,4.10
2023-01-29T04:34:06.150Z,3.45
2023-01-29T04:37:01.152Z,3.50
2023-01-29T04:39:50.495Z,3.58
2023-01-29T04:42:42.635Z,4.30
2023-01-29T04:45:36.301Z,4.28
2023-01-29T04:48:26.032Z,4.65
2023-01-29T04:51:13.995Z,8.68
2023-01-29T04:54:02.624Z,7.22
2023-01-29T04:56:52.295Z,8.23
2023-01-29T04:59:40.571Z,5.72
2023-01-29T05:02:25.700Z,4.15
2023-01-29T05:05:10.571Z,3.40
2023-01-29T05:07:54.100Z,3.03
2023-01-29T05:10:37.051Z,4.23
2023-01-29T05:13:21.696Z,7.80
2023-01-29T05:16:09.778Z,7.82
2023-01-29T05:18:53.219Z,6.80
2023-01-29T05:21:36.010Z,6.93
2023-01-29T05:24:21.246Z,4.68
2023-01-29T05:27:22.286Z,5.30
2023-01-29T05:30:06.415Z,7.57
2023-01-29T05:32:50.559Z,6.80
2023-01-29T05:35:33.995Z,6.10
2023-01-29T05:38:18.070Z,7.13
2023-01-29T05:41:00.996Z,7.47
2023-01-29T05:43:43.830Z,6.05
2023-01-29T05:46:26.642Z,5.63
2023-01-29T05:49:10.821Z,6.07
2023-01-29T05:51:53.579Z,5.85
2023-01-29T05:54:36.389Z,5.70
2023-01-29T05:57:19.154Z,5.65
2023-01-29T06:00:01.984Z,5.82
2023-01-29T06:02:55.042Z,5.55
2023-01-29T06:05:40.261Z,5.65
2023-01-29T06:08:23.052Z,4.90
2023-01-29T06:11:09.566Z,5.47
2023-01-29T06:13:52.374Z,4.78
2023-01-29T06:16:35.226Z,4.57
2023-01-29T06:19:18.904Z,5.35
2023-01-29T06:22:02.999Z,4.95
2023-01-29T06:24:45.806Z,5.25
2023-01-29T06:27:28.645Z,5.35
2023-01-29T06:30:12.604Z,5.68
2023-01-29T06:32:58.754Z,5.22
2023-01-29T06:35:41.613Z,5.70
2023-01-29T06:38:26.389Z,5.20
2023-01-29T06:41:11.441Z,5.45
2023-01-29T06:43:54.362Z,5.63
2023-01-29T06:46:37.212Z,5.35
2023-01-29T06:49:20.003Z,5.28
2023-01-29T06:52:02.779Z,5.43
2023-01-29T06:54:47.388Z,6.10
2023-01-29T06:57:30.618Z,6.57
2023-01-29T07:00:14.967Z,5.50
2023-01-29T07:02:57.902Z,5.75
2023-01-29T07:05:40.963Z,4.47
2023-01-29T07:08:23.734Z,7.82
2023-01-29T07:11:08.458Z,5.55
2023-01-29T07:13:51.241Z,7.97
2023-01-29T07:16:34.385Z,9.45
2023-01-29T07:19:17.724Z,10.65
2023-01-29T07:22:02.410Z,9.77
2023-01-29T07:24:45.247Z,8.07
2023-01-29T07:27:29.377Z,8.60
2023-01-29T07:30:13.406Z,7.95
2023-01-29T07:32:56.421Z,13.25
2023-01-29T07:35:40.982Z,7.47
2023-01-29T07:38:23.780Z,6.45
2023-01-29T07:41:07.425Z,6.32
2023-01-29T07:43:51.531Z,23.42
2023-01-29T07:46:34.395Z,11.45
2023-01-29T07:49:17.257Z,7.43
2023-01-29T07:52:00.268Z,17.42
2023-01-29T07:54:43.070Z,7.85
2023-01-29T07:57:26.515Z,7.43
2023-01-29T08:00:12.396Z,5.37
2023-01-29T08:02:55.230Z,5.07
2023-01-29T08:05:38.174Z,3.85
2023-01-29T08:08:20.901Z,4.50
2023-01-29T08:11:05.666Z,3.80
2023-01-29T08:13:48.514Z,4.97
2023-01-29T08:16:32.687Z,4.60
2023-01-29T08:19:15.607Z,4.65
2023-01-29T08:21:58.415Z,4.60
2023-01-29T08:24:53.487Z,4.70
2023-01-29T08:27:42.965Z,4.85
2023-01-29T08:30:25.991Z,5.35
2023-01-29T08:33:10.126Z,4.93
2023-01-29T08:35:53.040Z,4.32
2023-01-29T08:38:36.119Z,4.40
2023-01-29T08:41:18.938Z,3.88
2023-01-29T08:44:04.275Z,3.95
2023-01-29T08:46:47.107Z,4.03
2023-01-29T08:49:31.209Z,3.47
2023-01-29T08:52:14.000Z,4.85
2023-01-29T08:54:56.779Z,4.28
2023-01-29T08:57:40.166Z,3.75
2023-01-29T09:00:23.284Z,4.50
2023-01-29T09:03:07.814Z,4.22
2023-01-29T09:05:52.187Z,3.75
2023-01-29T09:08:35.059Z,4.28
2023-01-29T09:11:17.913Z,3.70
2023-01-29T09:14:00.704Z,3.40
2023-01-29T09:16:43.556Z,3.60
2023-01-29T09:19:26.365Z,4.35
2023-01-29T09:22:11.863Z,4.30
2023-01-29T09:24:54.877Z,5.35
2023-01-29T09:27:38.013Z,5.78
2023-01-29T09:30:20.760Z,4.18
2023-01-29T09:33:03.542Z,4.40
2023-01-29T09:35:47.157Z,5.03
2023-01-29T09:38:31.565Z,4.93
2023-01-29T09:41:27.821Z,6.25
2023-01-29T09:44:18.624Z,4.25
2023-01-29T09:47:06.072Z,5.18
2023-01-29T09:49:53.607Z,4.93
2023-01-29T09:52:39.889Z,4.25
2023-01-29T09:55:28.135Z,4.28
2023-01-29T09:58:19.580Z,6.13
2023-01-29T10:01:14.058Z,4.93
2023-01-29T10:04:18.154Z,5.70
2023-01-29T10:07:23.637Z,6.73
2023-01-29T10:10:34.611Z,4.45
2023-01-29T10:13:28.370Z,3.45
2023-01-29T10:16:28.588Z,5.17
2023-01-29T10:19:25.342Z,4.78
2023-01-29T10:22:30.146Z,4.53
2023-01-29T10:25:15.679Z,3.67
2023-01-29T10:28:02.072Z,3.25
2023-01-29T10:30:48.824Z,2.88
2023-01-29T10:33:49.344Z,2.72
2023-01-29T10:36:45.072Z,2.50
2023-01-29T10:39:30.848Z,3.10
2023-01-29T10:42:24.353Z,3.38
2023-01-29T10:45:22.304Z,3.13
2023-01-29T10:48:33.897Z,3.28
2023-01-29T10:51:30.958Z,4.50
2023-01-29T10:54:33.016Z,2.60
2023-01-29T10:57:24.251Z,2.58
2023-01-29T11:00:15.171Z,2.90
2023-01-29T11:02:58.230Z,2.40
2023-01-29T11:05:46.272Z,2.30
2023-01-29T11:08:35.443Z,2.63
2023-01-29T11:11:21.990Z,3.10
2023-01-29T11:14:09.008Z,2.80
2023-01-29T11:16:53.722Z,2.30
2023-01-29T11:19:42.154Z,2.45
2023-01-29T11:22:26.269Z,2.67
2023-01-29T11:25:12.006Z,2.30
2023-01-29T11:27:57.584Z,2.30
2023-01-29T11:30:42.474Z,2.08
2023-01-29T11:33:26.894Z,2.20
2023-01-29T11:39:18.601Z,2.88
2023-01-29T11:42:03.747Z,2.42
2023-01-29T11:44:46.591Z,2.25
2023-01-29T11:47:31.485Z,2.40
2023-01-29T11:50:22.922Z,2.20
2023-01-29T11:53:07.048Z,2.53
2023-01-29T11:55:51.650Z,2.17
2023-01-29T11:58:36.945Z,2.38
2023-01-29T12:01:31.349Z,2.40
2023-01-29T12:04:20.560Z,2.42
2023-01-29T12:07:04.687Z,2.40
2023-01-29T12:09:53.961Z,2.40
2023-01-29T12:12:41.962Z,2.00
2023-01-29T12:15:25.956Z,2.17
2023-01-29T12:18:15.384Z,2.30
2023-01-29T12:21:02.711Z,2.72
2023-01-29T12:23:53.216Z,2.17
2023-01-29T12:26:39.421Z,1.90
2023-01-29T12:29:33.007Z,2.97
2023-01-29T12:32:28.915Z,2.30
2023-01-29T12:35:19.626Z,2.60
2023-01-29T12:38:06.191Z,2.40
2023-01-29T12:40:55.294Z,2.30
2023-01-29T12:43:45.860Z,2.38
2023-01-29T12:46:32.875Z,2.17
2023-01-29T12:49:20.285Z,2.65
2023-01-29T12:52:13.490Z,2.20
2023-01-29T12:55:01.814Z,2.10
2023-01-29T12:57:50.185Z,2.00
2023-01-29T13:00:36.652Z,1.70
2023-01-29T13:03:25.621Z,2.30
2023-01-29T13:06:13.648Z,2.22
2023-01-29T13:09:00.272Z,2.33
2023-01-29T13:11:50.769Z,2.17
2023-01-29T13:14:43.806Z,1.90
2023-01-29T13:17:32.152Z,2.22
2023-01-29T13:20:20.586Z,2.38
2023-01-29T13:23:13.864Z,1.80
2023-01-29T13:25:56.813Z,2.20
2023-01-29T13:28:40.564Z,2.60
2023-01-29T13:31:34.134Z,2.13
2023-01-29T13:34:22.618Z,2.53
2023-01-29T13:37:12.300Z,2.78
2023-01-29T13:39:57.335Z,2.38
2023-01-29T13:42:44.965Z,2.22
2023-01-29T13:45:34.956Z,2.03
2023-01-29T13:48:25.164Z,1.95
2023-01-29T13:51:15.610Z,2.30
2023-01-29T13:54:03.692Z,2.00
2023-01-29T13:56:59.231Z,1.73
2023-01-29T13:59:53.973Z,1.92
2023-01-29T14:02:36.774Z,2.25
2023-01-29T14:05:41.127Z,2.42
2023-01-29T14:08:42.667Z,2.30
2023-01-29T14:11:35.716Z,1.85
2023-01-29T14:14:52.376Z,1.80
2023-01-29T14:17:37.305Z,1.73
2023-01-29T14:20:27.665Z,2.13
2023-01-29T14:23:29.324Z,2.00
2023-01-29T14:26:25.841Z,3.08
2023-01-29T14:29:32.494Z,3.50
2023-01-29T14:32:22.273Z,3.15
2023-01-29T14:35:11.589Z,2.85
2023-01-29T14:37:57.389Z,2.80
2023-01-29T14:40:47.712Z,2.70
2023-01-29T14:43:30.659Z,2.70
2023-01-29T14:46:44.535Z,2.75
2023-01-29T14:49:53.083Z,2.33
2023-01-29T14:52:40.503Z,2.33
2023-01-29T14:55:30.849Z,2.20
2023-01-29T14:58:19.840Z,2.67
2023-01-29T15:01:05.997Z,2.55
2023-01-29T15:03:51.785Z,2.20
2023-01-29T15:06:42.484Z,2.22
2023-01-29T15:09:36.775Z,2.15
2023-01-29T15:12:26.638Z,2.10
2023-01-29T15:15:18.486Z,1.90
2023-01-29T15:18:05.894Z,2.65
2023-01-29T15:20:49.022Z,2.58
2023-01-29T15:23:34.987Z,2.67
2023-01-29T15:26:21.525Z,2.65
2023-01-29T15:29:05.930Z,2.60
2023-01-29T15:31:50.203Z,2.75
2023-01-29T15:34:33.305Z,3.03
2023-01-29T15:37:26.923Z,2.50
2023-01-29T15:40:17.468Z,2.58
2023-01-29T15:43:00.775Z,2.60
2023-01-29T15:45:44.512Z,2.22
2023-01-29T15:48:34.043Z,2.65
2023-01-29T15:51:18.582Z,2.33
2023-01-29T15:54:04.445Z,2.72
2023-01-29T15:56:50.884Z,2.80
2023-01-29T15:59:39.638Z,2.33
2023-01-29T16:02:37.339Z,2.30
2023-01-29T16:05:24.983Z,2.60
2023-01-29T16:08:12.944Z,2.17
2023-01-29T16:10:58.876Z,2.10
2023-01-29T16:13:44.256Z,2.20
2023-01-29T16:16:29.020Z,2.50
2023-01-29T16:19:22.167Z,2.78
2023-01-29T16:22:09.043Z,2.90
2023-01-29T16:24:53.219Z,2.45
2023-01-29T16:27:36.432Z,16.13
2023-01-29T16:30:20.005Z,7.85
2023-01-29T16:33:04.921Z,4.78
2023-01-29T16:35:52.798Z,4.57
2023-01-29T16:38:37.279Z,7.03
2023-01-29T16:41:32.081Z,7.65
2023-01-29T16:44:33.738Z,7.68
2023-01-29T16:47:25.003Z,6.22
2023-01-29T16:50:24.896Z,5.20
2023-01-29T16:53:13.880Z,9.43
2023-01-29T16:56:04.251Z,9.73
2023-01-29T16:58:51.669Z,8.88
2023-01-29T17:01:37.048Z,5.80
2023-01-29T17:04:20.600Z,4.90
2023-01-29T17:07:03.815Z,9.30
2023-01-29T17:09:52.484Z,7.80
2023-01-29T17:12:38.759Z,6.72
2023-01-29T17:15:34.947Z,4.28
2023-01-29T17:18:20.557Z,4.28
2023-01-29T17:21:03.357Z,4.53
2023-01-29T17:23:46.217Z,4.18
2023-01-29T17:26:29.061Z,3.40
2023-01-29T17:29:18.717Z,3.15
2023-01-29T17:32:01.715Z,2.92
2023-01-29T17:34:44.506Z,2.88
2023-01-29T17:37:27.441Z,3.30
2023-01-29T17:40:26.839Z,3.10
2023-01-29T17:43:11.751Z,3.83
2023-01-29T17:45:56.011Z,2.97
2023-01-29T17:48:38.839Z,3.85
2023-01-29T17:51:24.046Z,3.08
2023-01-29T17:54:07.722Z,3.92
2023-01-29T17:56:51.456Z,2.80
2023-01-29T17:59:34.974Z,2.45
2023-01-29T18:02:29.603Z,3.03
2023-01-29T18:05:13.561Z,4.00
2023-01-29T18:07:56.345Z,2.80
2023-01-29T18:10:39.155Z,3.33
2023-01-29T18:13:21.972Z,3.30
2023-01-29T18:16:04.899Z,3.00
2023-01-29T18:18:49.404Z,3.35
2023-01-29T18:24:14.808Z,4.00
2023-01-29T18:26:57.964Z,3.85
2023-01-29T18:29:40.960Z,3.40
2023-01-29T18:32:23.743Z,5.57
2023-01-29T18:35:09.158Z,7.47
2023-01-29T18:37:52.397Z,5.22
2023-01-29T18:40:35.487Z,4.10
2023-01-29T18:43:18.253Z,3.50
2023-01-29T18:46:01.224Z,3.22
2023-01-29T18:48:44.041Z,5.00
2023-01-29T18:51:28.208Z,3.40
2023-01-29T18:54:12.791Z,3.67
2023-01-29T18:57:13.105Z,3.10
2023-01-29T18:59:58.447Z,2.95
2023-01-29T19:02:42.920Z,3.20
2023-01-29T19:05:25.793Z,3.60
2023-01-29T19:08:10.376Z,4.05
2023-01-29T19:10:53.201Z,3.65
2023-01-29T19:13:37.961Z,3.63
2023-01-29T19:16:20.827Z,4.60
2023-01-29T19:19:03.810Z,3.42
2023-01-29T19:21:46.763Z,3.55
2023-01-29T19:24:36.243Z,4.28
2023-01-29T19:27:19.070Z,4.07
2023-01-29T19:30:02.164Z,3.63
2023-01-29T19:32:44.966Z,3.70
2023-01-29T19:35:28.470Z,4.32
2023-01-29T19:38:11.305Z,4.10
2023-01-29T19:40:56.144Z,4.03
2023-01-29T19:43:41.888Z,3.97
2023-01-29T19:46:24.721Z,4.53
2023-01-29T19:49:07.802Z,3.45
2023-01-29T19:51:50.612Z,3.40
2023-01-29T19:54:33.403Z,3.60
2023-01-29T19:57:17.559Z,4.05
2023-01-29T20:00:01.161Z,4.03
2023-01-29T20:02:47.088Z,4.35
2023-01-29T20:05:29.872Z,5.10
2023-01-29T20:08:12.660Z,4.05
2023-01-29T20:10:55.503Z,4.00
2023-01-29T20:13:39.669Z,4.30
2023-01-29T20:16:23.023Z,3.70
2023-01-29T20:19:13.749Z,4.00
2023-01-29T20:21:57.940Z,4.32
2023-01-29T20:24:42.643Z,4.93
2023-01-29T20:27:25.624Z,4.25
2023-01-29T20:30:11.390Z,4.72
2023-01-29T20:32:54.162Z,4.22
2023-01-29T20:35:38.286Z,4.30
2023-01-29T20:38:21.227Z,4.20
2023-01-29T20:41:05.947Z,3.63
2023-01-29T20:43:50.463Z,3.70
2023-01-29T20:46:35.289Z,4.22
2023-01-29T20:49:18.368Z,5.03
2023-01-29T20:52:01.219Z,4.47
2023-01-29T20:54:44.062Z,5.10
2023-01-29T20:57:26.882Z,3.97
2023-01-29T21:00:10.845Z,4.75
2023-01-29T21:02:55.038Z,5.50
2023-01-29T21:05:37.839Z,6.32
2023-01-29T21:08:21.042Z,4.30
2023-01-29T21:11:04.005Z,3.97
2023-01-29T21:13:46.967Z,4.50
2023-01-29T21:16:29.888Z,4.32
2023-01-29T21:19:15.712Z,5.25
2023-01-29T21:21:59.044Z,4.70
2023-01-29T21:24:41.823Z,5.68
2023-01-29T21:27:25.455Z,4.45
2023-01-29T21:30:09.594Z,4.18
2023-01-29T21:32:52.388Z,4.10
2023-01-29T21:35:38.392Z,4.03
2023-01-29T21:38:21.187Z,4.22
2023-01-29T21:41:05.926Z,3.95
2023-01-29T21:43:47.785Z,4.60
2023-01-29T21:46:30.588Z,5.20
2023-01-29T21:49:13.380Z,4.70
2023-01-29T21:51:57.628Z,4.70
2023-01-29T21:54:41.019Z,5.00
2023-01-29T21:57:26.498Z,5.57
2023-01-29T22:00:11.135Z,4.70
2023-01-29T22:02:54.085Z,5.18
2023-01-29T22:05:36.935Z,4.35
2023-01-29T22:08:21.534Z,4.30
2023-01-29T22:11:06.981Z,3.88
2023-01-29T22:13:49.913Z,4.70
2023-01-29T22:16:32.773Z,4.25
2023-01-29T22:19:15.630Z,4.93
2023-01-29T22:21:58.483Z,7.88
2023-01-29T22:24:44.705Z,6.30
2023-01-29T22:27:27.570Z,5.00
2023-01-29T22:30:11.729Z,5.28
2023-01-29T22:32:54.586Z,4.93
2023-01-29T22:35:37.456Z,5.32
2023-01-29T22:38:20.301Z,5.63
2023-01-29T22:41:04.616Z,5.63
2023-01-29T22:46:30.090Z,4.80
2023-01-29T22:49:13.163Z,4.78
2023-01-29T22:55:04.367Z,5.15
2023-01-29T22:57:49.731Z,4.93
2023-01-29T23:00:32.596Z,6.20
2023-01-29T23:03:15.362Z,6.20
2023-01-29T23:05:58.161Z,4.55
2023-01-29T23:08:41.187Z,5.18
2023-01-29T23:11:25.423Z,5.18
2023-01-29T23:14:08.218Z,4.55
2023-01-29T23:16:51.039Z,5.82
2023-01-29T23:19:33.893Z,6.13
2023-01-29T23:22:16.679Z,5.88
2023-01-29T23:25:00.300Z,6.10
2023-01-29T23:27:43.473Z,6.38
2023-01-29T23:30:26.324Z,5.57
2023-01-29T23:33:11.919Z,5.82
2023-01-29T23:35:55.024Z,6.28
2023-01-29T23:38:37.828Z,5.32
2023-01-29T23:41:21.271Z,6.05
2023-01-29T23:44:05.935Z,5.50
2023-01-29T23:46:48.819Z,5.07
2023-01-29T23:49:31.643Z,6.32
2023-01-29T23:52:14.454Z,5.85
2023-01-29T23:54:57.259Z,6.75
2023-01-29T23:57:40.074Z,7.63
